sensor_id;sensor_type;location;lat;lon;timestamp;P1;durP1;ratioP1;P2;durP2;ratioP2
22268;SDS011;11303;50.772;19.670;2022-08-19T00:00:21;22.52;;;16.08;;
22268;SDS011;11303;50.772;19.670;2022-08-19T00:02:23;21.45;;;17.63;;
22268;SDS011;11303;50.772;19.670;2022-08-19T00:04:26;21.92;;;17.73;;
22268;SDS011;11303;50.772;19.670;2022-08-19T00:06:31;22.55;;;17.15;;
22268;SDS011;11303;50.772;19.670;2022-08-19T00:08:32;22.90;;;17.90;;
22268;SDS011;11303;50.772;19.670;2022-08-19T00:10:34;20.80;;;17.85;;
22268;SDS011;11303;50.772;19.670;2022-08-19T00:12:35;22.40;;;18.25;;
22268;SDS011;11303;50.772;19.670;2022-08-19T00:14:47;20.70;;;18.33;;
22268;SDS011;11303;50.772;19.670;2022-08-19T00:16:49;22.30;;;18.77;;
22268;SDS011;11303;50.772;19.670;2022-08-19T00:18:55;21.00;;;18.80;;
22268;SDS011;11303;50.772;19.670;2022-08-19T00:20:57;24.75;;;19.80;;
22268;SDS011;11303;50.772;19.670;2022-08-19T00:23:00;22.85;;;20.45;;
22268;SDS011;11303;50.772;19.670;2022-08-19T00:25:02;26.02;;;20.65;;
22268;SDS011;11303;50.772;19.670;2022-08-19T00:27:04;25.10;;;22.08;;
22268;SDS011;11303;50.772;19.670;2022-08-19T00:29:26;20.55;;;17.63;;
22268;SDS011;11303;50.772;19.670;2022-08-19T00:31:28;23.23;;;20.10;;
22268;SDS011;11303;50.772;19.670;2022-08-19T00:33:30;22.38;;;19.80;;
22268;SDS011;11303;50.772;19.670;2022-08-19T00:35:33;28.02;;;22.00;;
22268;SDS011;11303;50.772;19.670;2022-08-19T00:37:35;28.70;;;21.75;;
22268;SDS011;11303;50.772;19.670;2022-08-19T00:39:37;26.67;;;20.10;;
22268;SDS011;11303;50.772;19.670;2022-08-19T00:41:39;24.23;;;19.52;;
22268;SDS011;11303;50.772;19.670;2022-08-19T00:43:41;20.15;;;18.08;;
22268;SDS011;11303;50.772;19.670;2022-08-19T00:45:42;20.52;;;18.42;;
22268;SDS011;11303;50.772;19.670;2022-08-19T00:47:44;22.23;;;18.40;;
22268;SDS011;11303;50.772;19.670;2022-08-19T00:49:48;24.25;;;17.63;;
22268;SDS011;11303;50.772;19.670;2022-08-19T00:52:09;20.75;;;17.55;;
22268;SDS011;11303;50.772;19.670;2022-08-19T00:54:13;18.83;;;16.90;;
22268;SDS011;11303;50.772;19.670;2022-08-19T00:56:15;18.50;;;16.38;;
22268;SDS011;11303;50.772;19.670;2022-08-19T00:58:19;24.13;;;16.10;;
22268;SDS011;11303;50.772;19.670;2022-08-19T01:00:22;18.60;;;15.63;;
22268;SDS011;11303;50.772;19.670;2022-08-19T01:02:26;20.05;;;16.13;;
22268;SDS011;11303;50.772;19.670;2022-08-19T01:04:28;19.02;;;15.93;;
22268;SDS011;11303;50.772;19.670;2022-08-19T01:06:30;20.48;;;15.65;;
22268;SDS011;11303;50.772;19.670;2022-08-19T01:08:33;22.75;;;16.65;;
22268;SDS011;11303;50.772;19.670;2022-08-19T01:10:37;18.52;;;16.42;;
22268;SDS011;11303;50.772;19.670;2022-08-19T01:12:47;23.13;;;17.13;;
22268;SDS011;11303;50.772;19.670;2022-08-19T01:14:49;20.10;;;15.80;;
22268;SDS011;11303;50.772;19.670;2022-08-19T01:16:51;18.30;;;15.77;;
22268;SDS011;11303;50.772;19.670;2022-08-19T01:18:55;21.42;;;16.40;;
22268;SDS011;11303;50.772;19.670;2022-08-19T01:20:58;18.40;;;15.27;;
22268;SDS011;11303;50.772;19.670;2022-08-19T01:23:02;19.95;;;15.88;;
22268;SDS011;11303;50.772;19.670;2022-08-19T01:25:04;18.42;;;16.35;;
22268;SDS011;11303;50.772;19.670;2022-08-19T01:27:15;17.95;;;15.85;;
22268;SDS011;11303;50.772;19.670;2022-08-19T01:29:17;18.48;;;16.55;;
22268;SDS011;11303;50.772;19.670;2022-08-19T01:31:21;20.65;;;16.13;;
22268;SDS011;11303;50.772;19.670;2022-08-19T01:33:27;24.67;;;17.77;;
22268;SDS011;11303;50.772;19.670;2022-08-19T01:35:32;22.30;;;16.73;;
22268;SDS011;11303;50.772;19.670;2022-08-19T01:37:43;23.05;;;17.27;;
22268;SDS011;11303;50.772;19.670;2022-08-19T01:39:49;19.20;;;16.90;;
22268;SDS011;11303;50.772;19.670;2022-08-19T01:41:51;24.17;;;16.63;;
22268;SDS011;11303;50.772;19.670;2022-08-19T01:43:56;23.98;;;17.58;;
22268;SDS011;11303;50.772;19.670;2022-08-19T01:46:18;21.60;;;16.45;;
22268;SDS011;11303;50.772;19.670;2022-08-19T01:48:25;22.70;;;18.13;;
22268;SDS011;11303;50.772;19.670;2022-08-19T01:50:26;24.90;;;17.52;;
22268;SDS011;11303;50.772;19.670;2022-08-19T01:52:28;20.80;;;18.13;;
22268;SDS011;11303;50.772;19.670;2022-08-19T01:54:30;21.50;;;18.23;;
22268;SDS011;11303;50.772;19.670;2022-08-19T01:56:32;21.35;;;18.00;;
22268;SDS011;11303;50.772;19.670;2022-08-19T01:58:35;24.92;;;18.55;;
22268;SDS011;11303;50.772;19.670;2022-08-19T02:00:39;23.55;;;18.88;;
22268;SDS011;11303;50.772;19.670;2022-08-19T02:02:42;21.92;;;17.65;;
22268;SDS011;11303;50.772;19.670;2022-08-19T02:04:44;20.77;;;18.42;;
22268;SDS011;11303;50.772;19.670;2022-08-19T02:06:47;19.83;;;17.52;;
22268;SDS011;11303;50.772;19.670;2022-08-19T02:08:49;19.75;;;16.67;;
22268;SDS011;11303;50.772;19.670;2022-08-19T02:10:52;22.15;;;18.20;;
22268;SDS011;11303;50.772;19.670;2022-08-19T02:12:53;19.83;;;17.13;;
22268;SDS011;11303;50.772;19.670;2022-08-19T02:14:56;19.85;;;17.70;;
22268;SDS011;11303;50.772;19.670;2022-08-19T02:16:58;22.88;;;17.38;;
22268;SDS011;11303;50.772;19.670;2022-08-19T02:18:59;23.13;;;17.35;;
22268;SDS011;11303;50.772;19.670;2022-08-19T02:21:01;21.02;;;17.55;;
22268;SDS011;11303;50.772;19.670;2022-08-19T02:23:03;24.05;;;17.10;;
22268;SDS011;11303;50.772;19.670;2022-08-19T02:25:14;21.65;;;18.27;;
22268;SDS011;11303;50.772;19.670;2022-08-19T02:27:15;21.98;;;18.27;;
22268;SDS011;11303;50.772;19.670;2022-08-19T02:29:17;20.02;;;17.17;;
22268;SDS011;11303;50.772;19.670;2022-08-19T02:31:19;19.73;;;17.67;;
22268;SDS011;11303;50.772;19.670;2022-08-19T02:33:26;23.45;;;19.48;;
22268;SDS011;11303;50.772;19.670;2022-08-19T02:35:28;23.98;;;18.30;;
22268;SDS011;11303;50.772;19.670;2022-08-19T02:37:29;22.98;;;19.15;;
22268;SDS011;11303;50.772;19.670;2022-08-19T02:39:50;22.67;;;19.80;;
22268;SDS011;11303;50.772;19.670;2022-08-19T02:41:51;24.50;;;20.50;;
22268;SDS011;11303;50.772;19.670;2022-08-19T02:43:54;23.17;;;20.58;;
22268;SDS011;11303;50.772;19.670;2022-08-19T02:46:18;26.63;;;21.15;;
22268;SDS011;11303;50.772;19.670;2022-08-19T02:48:23;22.45;;;20.08;;
22268;SDS011;11303;50.772;19.670;2022-08-19T02:50:26;27.33;;;20.50;;
22268;SDS011;11303;50.772;19.670;2022-08-19T02:52:27;24.75;;;20.55;;
22268;SDS011;11303;50.772;19.670;2022-08-19T02:54:29;25.98;;;20.42;;
22268;SDS011;11303;50.772;19.670;2022-08-19T02:56:31;25.58;;;22.15;;
22268;SDS011;11303;50.772;19.670;2022-08-19T02:58:34;27.73;;;22.48;;
22268;SDS011;11303;50.772;19.670;2022-08-19T03:00:35;25.83;;;21.55;;
22268;SDS011;11303;50.772;19.670;2022-08-19T03:02:42;27.77;;;22.98;;
22268;SDS011;11303;50.772;19.670;2022-08-19T03:04:43;25.73;;;22.27;;
22268;SDS011;11303;50.772;19.670;2022-08-19T03:06:45;24.33;;;21.10;;
22268;SDS011;11303;50.772;19.670;2022-08-19T03:08:48;24.95;;;21.83;;
22268;SDS011;11303;50.772;19.670;2022-08-19T03:10:53;23.52;;;20.98;;
22268;SDS011;11303;50.772;19.670;2022-08-19T03:12:55;25.52;;;21.10;;
22268;SDS011;11303;50.772;19.670;2022-08-19T03:14:56;24.90;;;22.25;;
22268;SDS011;11303;50.772;19.670;2022-08-19T03:16:58;24.33;;;21.65;;
22268;SDS011;11303;50.772;19.670;2022-08-19T03:19:00;25.15;;;21.23;;
22268;SDS011;11303;50.772;19.670;2022-08-19T03:21:03;24.67;;;21.25;;
22268;SDS011;11303;50.772;19.670;2022-08-19T03:23:05;25.67;;;21.85;;
22268;SDS011;11303;50.772;19.670;2022-08-19T03:25:06;26.10;;;21.52;;
22268;SDS011;11303;50.772;19.670;2022-08-19T03:27:08;27.30;;;22.52;;
22268;SDS011;11303;50.772;19.670;2022-08-19T03:29:10;25.63;;;22.20;;
22268;SDS011;11303;50.772;19.670;2022-08-19T03:31:13;23.38;;;20.98;;
22268;SDS011;11303;50.772;19.670;2022-08-19T03:33:35;27.83;;;22.00;;
22268;SDS011;11303;50.772;19.670;2022-08-19T03:35:37;25.92;;;23.20;;
22268;SDS011;11303;50.772;19.670;2022-08-19T03:37:39;29.40;;;22.55;;
22268;SDS011;11303;50.772;19.670;2022-08-19T03:39:41;29.63;;;22.40;;
22268;SDS011;11303;50.772;19.670;2022-08-19T03:41:44;29.67;;;23.88;;
22268;SDS011;11303;50.772;19.670;2022-08-19T03:43:49;25.95;;;23.15;;
22268;SDS011;11303;50.772;19.670;2022-08-19T03:45:59;27.73;;;23.88;;
22268;SDS011;11303;50.772;19.670;2022-08-19T03:48:02;27.25;;;24.30;;
22268;SDS011;11303;50.772;19.670;2022-08-19T03:50:03;29.15;;;25.05;;
22268;SDS011;11303;50.772;19.670;2022-08-19T03:52:06;33.00;;;24.63;;
22268;SDS011;11303;50.772;19.670;2022-08-19T03:54:10;27.08;;;24.17;;
22268;SDS011;11303;50.772;19.670;2022-08-19T03:56:13;27.50;;;23.33;;
22268;SDS011;11303;50.772;19.670;2022-08-19T03:58:15;29.35;;;24.75;;
22268;SDS011;11303;50.772;19.670;2022-08-19T04:00:17;26.80;;;23.80;;
22268;SDS011;11303;50.772;19.670;2022-08-19T04:02:19;26.17;;;23.30;;
22268;SDS011;11303;50.772;19.670;2022-08-19T04:04:21;28.25;;;24.58;;
22268;SDS011;11303;50.772;19.670;2022-08-19T04:06:24;27.48;;;23.75;;
22268;SDS011;11303;50.772;19.670;2022-08-19T04:08:27;30.77;;;22.67;;
22268;SDS011;11303;50.772;19.670;2022-08-19T04:10:29;26.40;;;23.52;;
22268;SDS011;11303;50.772;19.670;2022-08-19T04:12:31;26.65;;;22.40;;
22268;SDS011;11303;50.772;19.670;2022-08-19T04:14:33;22.58;;;20.10;;
22268;SDS011;11303;50.772;19.670;2022-08-19T04:16:35;23.98;;;19.77;;
22268;SDS011;11303;50.772;19.670;2022-08-19T04:18:37;21.77;;;19.00;;
22268;SDS011;11303;50.772;19.670;2022-08-19T04:20:41;24.33;;;18.70;;
22268;SDS011;11303;50.772;19.670;2022-08-19T04:22:46;19.95;;;17.55;;
22268;SDS011;11303;50.772;19.670;2022-08-19T04:24:48;23.30;;;17.05;;
22268;SDS011;11303;50.772;19.670;2022-08-19T04:26:50;19.75;;;17.60;;
22268;SDS011;11303;50.772;19.670;2022-08-19T04:28:52;21.60;;;17.52;;
22268;SDS011;11303;50.772;19.670;2022-08-19T04:30:55;22.10;;;17.58;;
22268;SDS011;11303;50.772;19.670;2022-08-19T04:32:57;20.67;;;17.23;;
22268;SDS011;11303;50.772;19.670;2022-08-19T04:34:58;20.55;;;16.92;;
22268;SDS011;11303;50.772;19.670;2022-08-19T04:37:17;23.07;;;16.83;;
22268;SDS011;11303;50.772;19.670;2022-08-19T04:39:21;23.20;;;17.67;;
22268;SDS011;11303;50.772;19.670;2022-08-19T04:41:45;21.58;;;17.33;;
22268;SDS011;11303;50.772;19.670;2022-08-19T04:44:06;21.33;;;17.35;;
22268;SDS011;11303;50.772;19.670;2022-08-19T04:46:09;20.35;;;16.83;;
22268;SDS011;11303;50.772;19.670;2022-08-19T04:48:28;22.30;;;17.30;;
22268;SDS011;11303;50.772;19.670;2022-08-19T04:50:30;23.65;;;17.00;;
22268;SDS011;11303;50.772;19.670;2022-08-19T04:52:31;18.45;;;15.88;;
22268;SDS011;11303;50.772;19.670;2022-08-19T04:54:33;21.80;;;15.73;;
22268;SDS011;11303;50.772;19.670;2022-08-19T04:56:40;19.88;;;15.13;;
22268;SDS011;11303;50.772;19.670;2022-08-19T04:58:42;17.92;;;14.70;;
22268;SDS011;11303;50.772;19.670;2022-08-19T05:00:45;17.98;;;14.25;;
22268;SDS011;11303;50.772;19.670;2022-08-19T05:02:46;17.65;;;13.18;;
22268;SDS011;11303;50.772;19.670;2022-08-19T05:04:49;23.33;;;14.10;;
22268;SDS011;11303;50.772;19.670;2022-08-19T05:06:51;17.48;;;14.10;;
22268;SDS011;11303;50.772;19.670;2022-08-19T05:09:00;19.92;;;13.80;;
22268;SDS011;11303;50.772;19.670;2022-08-19T05:11:10;19.88;;;14.60;;
22268;SDS011;11303;50.772;19.670;2022-08-19T05:13:16;21.23;;;16.30;;
22268;SDS011;11303;50.772;19.670;2022-08-19T05:15:19;24.30;;;16.08;;
22268;SDS011;11303;50.772;19.670;2022-08-19T05:17:20;27.13;;;15.15;;
22268;SDS011;11303;50.772;19.670;2022-08-19T05:19:34;20.85;;;14.82;;
22268;SDS011;11303;50.772;19.670;2022-08-19T05:21:55;21.00;;;15.35;;
22268;SDS011;11303;50.772;19.670;2022-08-19T05:24:16;23.70;;;15.88;;
22268;SDS011;11303;50.772;19.670;2022-08-19T05:26:18;19.33;;;14.60;;
22268;SDS011;11303;50.772;19.670;2022-08-19T05:28:20;20.80;;;14.52;;
22268;SDS011;11303;50.772;19.670;2022-08-19T05:30:21;18.60;;;14.95;;
22268;SDS011;11303;50.772;19.670;2022-08-19T05:32:42;22.73;;;15.52;;
22268;SDS011;11303;50.772;19.670;2022-08-19T05:34:44;18.25;;;13.63;;
22268;SDS011;11303;50.772;19.670;2022-08-19T05:36:45;15.98;;;13.05;;
22268;SDS011;11303;50.772;19.670;2022-08-19T05:38:47;18.08;;;13.13;;
22268;SDS011;11303;50.772;19.670;2022-08-19T05:40:49;17.40;;;13.00;;
22268;SDS011;11303;50.772;19.670;2022-08-19T05:42:50;18.35;;;13.93;;
22268;SDS011;11303;50.772;19.670;2022-08-19T05:44:55;17.38;;;13.65;;
22268;SDS011;11303;50.772;19.670;2022-08-19T05:46:58;21.77;;;13.50;;
22268;SDS011;11303;50.772;19.670;2022-08-19T05:49:00;18.10;;;13.38;;
22268;SDS011;11303;50.772;19.670;2022-08-19T05:51:05;19.00;;;13.18;;
22268;SDS011;11303;50.772;19.670;2022-08-19T05:53:07;14.98;;;12.68;;
22268;SDS011;11303;50.772;19.670;2022-08-19T05:55:10;16.63;;;12.43;;
22268;SDS011;11303;50.772;19.670;2022-08-19T05:57:12;16.55;;;13.07;;
22268;SDS011;11303;50.772;19.670;2022-08-19T05:59:14;17.48;;;12.20;;
22268;SDS011;11303;50.772;19.670;2022-08-19T06:01:19;15.70;;;10.88;;
22268;SDS011;11303;50.772;19.670;2022-08-19T06:03:21;13.43;;;11.82;;
22268;SDS011;11303;50.772;19.670;2022-08-19T06:05:22;15.98;;;12.50;;
22268;SDS011;11303;50.772;19.670;2022-08-19T06:07:24;14.82;;;11.70;;
22268;SDS011;11303;50.772;19.670;2022-08-19T06:09:26;13.85;;;11.52;;
22268;SDS011;11303;50.772;19.670;2022-08-19T06:11:38;15.20;;;11.90;;
22268;SDS011;11303;50.772;19.670;2022-08-19T06:13:42;17.00;;;11.45;;
22268;SDS011;11303;50.772;19.670;2022-08-19T06:15:45;13.25;;;11.40;;
22268;SDS011;11303;50.772;19.670;2022-08-19T06:17:47;14.32;;;10.95;;
22268;SDS011;11303;50.772;19.670;2022-08-19T06:19:49;16.50;;;11.60;;
22268;SDS011;11303;50.772;19.670;2022-08-19T06:21:51;14.20;;;11.25;;
22268;SDS011;11303;50.772;19.670;2022-08-19T06:23:53;15.82;;;10.80;;
22268;SDS011;11303;50.772;19.670;2022-08-19T06:25:56;14.23;;;11.50;;
22268;SDS011;11303;50.772;19.670;2022-08-19T06:27:58;15.13;;;11.20;;
22268;SDS011;11303;50.772;19.670;2022-08-19T06:30:15;13.27;;;10.73;;
22268;SDS011;11303;50.772;19.670;2022-08-19T06:32:17;18.38;;;11.68;;
22268;SDS011;11303;50.772;19.670;2022-08-19T06:34:20;14.05;;;11.10;;
22268;SDS011;11303;50.772;19.670;2022-08-19T06:36:29;13.93;;;9.77;;
22268;SDS011;11303;50.772;19.670;2022-08-19T06:38:34;16.23;;;10.43;;
22268;SDS011;11303;50.772;19.670;2022-08-19T06:40:36;13.90;;;11.00;;
22268;SDS011;11303;50.772;19.670;2022-08-19T06:42:39;14.35;;;11.10;;
22268;SDS011;11303;50.772;19.670;2022-08-19T06:44:55;13.45;;;10.23;;
22268;SDS011;11303;50.772;19.670;2022-08-19T06:46:57;19.20;;;10.82;;
22268;SDS011;11303;50.772;19.670;2022-08-19T06:49:00;15.98;;;10.80;;
22268;SDS011;11303;50.772;19.670;2022-08-19T06:51:01;13.55;;;11.20;;
22268;SDS011;11303;50.772;19.670;2022-08-19T06:53:08;11.75;;;10.48;;
22268;SDS011;11303;50.772;19.670;2022-08-19T06:55:10;12.73;;;10.95;;
22268;SDS011;11303;50.772;19.670;2022-08-19T06:57:12;14.10;;;10.65;;
22268;SDS011;11303;50.772;19.670;2022-08-19T06:59:18;13.95;;;10.27;;
22268;SDS011;11303;50.772;19.670;2022-08-19T07:01:21;13.50;;;10.70;;
22268;SDS011;11303;50.772;19.670;2022-08-19T07:03:23;13.02;;;10.85;;
22268;SDS011;11303;50.772;19.670;2022-08-19T07:05:24;17.33;;;10.02;;
22268;SDS011;11303;50.772;19.670;2022-08-19T07:07:26;17.00;;;10.77;;
22268;SDS011;11303;50.772;19.670;2022-08-19T07:09:28;13.38;;;9.45;;
22268;SDS011;11303;50.772;19.670;2022-08-19T07:11:30;12.65;;;10.05;;
22268;SDS011;11303;50.772;19.670;2022-08-19T07:13:34;12.15;;;9.25;;
22268;SDS011;11303;50.772;19.670;2022-08-19T07:15:39;13.63;;;10.75;;
22268;SDS011;11303;50.772;19.670;2022-08-19T07:17:40;16.83;;;10.60;;
22268;SDS011;11303;50.772;19.670;2022-08-19T07:19:44;14.18;;;9.75;;
22268;SDS011;11303;50.772;19.670;2022-08-19T07:21:48;16.30;;;9.65;;
22268;SDS011;11303;50.772;19.670;2022-08-19T07:23:51;13.07;;;10.00;;
22268;SDS011;11303;50.772;19.670;2022-08-19T07:25:53;13.73;;;9.13;;
22268;SDS011;11303;50.772;19.670;2022-08-19T07:27:54;13.88;;;9.85;;
22268;SDS011;11303;50.772;19.670;2022-08-19T07:29:57;13.40;;;9.60;;
22268;SDS011;11303;50.772;19.670;2022-08-19T07:32:00;12.45;;;10.10;;
22268;SDS011;11303;50.772;19.670;2022-08-19T07:34:03;18.05;;;9.90;;
22268;SDS011;11303;50.772;19.670;2022-08-19T07:36:10;14.98;;;10.32;;
22268;SDS011;11303;50.772;19.670;2022-08-19T07:38:13;14.85;;;9.30;;
22268;SDS011;11303;50.772;19.670;2022-08-19T07:40:16;14.88;;;10.13;;
22268;SDS011;11303;50.772;19.670;2022-08-19T07:42:18;15.02;;;9.45;;
22268;SDS011;11303;50.772;19.670;2022-08-19T07:44:22;10.65;;;9.40;;
22268;SDS011;11303;50.772;19.670;2022-08-19T07:46:24;12.52;;;10.25;;
22268;SDS011;11303;50.772;19.670;2022-08-19T07:48:26;13.10;;;9.55;;
22268;SDS011;11303;50.772;19.670;2022-08-19T07:50:29;13.85;;;9.38;;
22268;SDS011;11303;50.772;19.670;2022-08-19T07:52:31;11.88;;;9.73;;
22268;SDS011;11303;50.772;19.670;2022-08-19T07:54:33;13.27;;;10.07;;
22268;SDS011;11303;50.772;19.670;2022-08-19T07:56:37;12.35;;;9.52;;
22268;SDS011;11303;50.772;19.670;2022-08-19T07:58:40;14.35;;;9.82;;
22268;SDS011;11303;50.772;19.670;2022-08-19T08:00:43;14.65;;;9.88;;
22268;SDS011;11303;50.772;19.670;2022-08-19T08:02:46;11.50;;;9.13;;
22268;SDS011;11303;50.772;19.670;2022-08-19T08:04:49;11.55;;;8.90;;
22268;SDS011;11303;50.772;19.670;2022-08-19T08:07:10;24.27;;;10.02;;
22268;SDS011;11303;50.772;19.670;2022-08-19T08:09:33;12.48;;;9.88;;
22268;SDS011;11303;50.772;19.670;2022-08-19T08:11:40;12.68;;;9.07;;
22268;SDS011;11303;50.772;19.670;2022-08-19T08:13:49;11.05;;;8.75;;
22268;SDS011;11303;50.772;19.670;2022-08-19T08:16:04;12.93;;;9.20;;
22268;SDS011;11303;50.772;19.670;2022-08-19T08:18:11;12.52;;;8.80;;
22268;SDS011;11303;50.772;19.670;2022-08-19T08:20:14;11.23;;;8.85;;
22268;SDS011;11303;50.772;19.670;2022-08-19T08:22:17;13.75;;;9.02;;
22268;SDS011;11303;50.772;19.670;2022-08-19T08:24:39;15.77;;;8.75;;
22268;SDS011;11303;50.772;19.670;2022-08-19T08:26:41;12.75;;;7.93;;
22268;SDS011;11303;50.772;19.670;2022-08-19T08:28:47;9.55;;;8.02;;
22268;SDS011;11303;50.772;19.670;2022-08-19T08:30:50;11.52;;;8.20;;
22268;SDS011;11303;50.772;19.670;2022-08-19T08:32:52;17.58;;;8.93;;
22268;SDS011;11303;50.772;19.670;2022-08-19T08:34:53;18.08;;;9.60;;
22268;SDS011;11303;50.772;19.670;2022-08-19T08:36:55;15.50;;;8.98;;
22268;SDS011;11303;50.772;19.670;2022-08-19T08:38:57;12.57;;;8.68;;
22268;SDS011;11303;50.772;19.670;2022-08-19T08:41:06;13.88;;;9.05;;
22268;SDS011;11303;50.772;19.670;2022-08-19T08:43:49;13.32;;;9.07;;
22268;SDS011;11303;50.772;19.670;2022-08-19T08:45:47;11.57;;;7.97;;
22268;SDS011;11303;50.772;19.670;2022-08-19T08:47:55;16.65;;;8.80;;
22268;SDS011;11303;50.772;19.670;2022-08-19T08:50:08;12.05;;;8.15;;
22268;SDS011;11303;50.772;19.670;2022-08-19T08:52:27;14.93;;;8.38;;
22268;SDS011;11303;50.772;19.670;2022-08-19T08:54:37;12.70;;;9.05;;
22268;SDS011;11303;50.772;19.670;2022-08-19T08:56:49;13.60;;;8.80;;
22268;SDS011;11303;50.772;19.670;2022-08-19T09:01:04;15.05;;;9.80;;
22268;SDS011;11303;50.772;19.670;2022-08-19T09:03:16;14.18;;;9.48;;
22268;SDS011;11303;50.772;19.670;2022-08-19T09:05:23;12.60;;;8.63;;
22268;SDS011;11303;50.772;19.670;2022-08-19T09:08:06;19.35;;;8.80;;
22268;SDS011;11303;50.772;19.670;2022-08-19T09:10:22;13.43;;;9.18;;
22268;SDS011;11303;50.772;19.670;2022-08-19T09:15:11;17.38;;;9.13;;
22268;SDS011;11303;50.772;19.670;2022-08-19T09:17:14;10.32;;;9.13;;
22268;SDS011;11303;50.772;19.670;2022-08-19T09:19:16;16.60;;;8.32;;
22268;SDS011;11303;50.772;19.670;2022-08-19T09:21:23;10.63;;;9.35;;
22268;SDS011;11303;50.772;19.670;2022-08-19T09:23:33;11.70;;;9.65;;
22268;SDS011;11303;50.772;19.670;2022-08-19T09:25:36;16.52;;;8.65;;
22268;SDS011;11303;50.772;19.670;2022-08-19T09:27:38;17.30;;;8.65;;
22268;SDS011;11303;50.772;19.670;2022-08-19T09:29:43;12.70;;;8.93;;
22268;SDS011;11303;50.772;19.670;2022-08-19T09:31:47;11.10;;;8.27;;
22268;SDS011;11303;50.772;19.670;2022-08-19T09:33:48;17.95;;;8.57;;
22268;SDS011;11303;50.772;19.670;2022-08-19T09:36:01;16.45;;;8.80;;
22268;SDS011;11303;50.772;19.670;2022-08-19T09:38:08;11.30;;;8.05;;
22268;SDS011;11303;50.772;19.670;2022-08-19T09:40:10;14.15;;;7.97;;
22268;SDS011;11303;50.772;19.670;2022-08-19T09:42:13;15.60;;;8.27;;
22268;SDS011;11303;50.772;19.670;2022-08-19T09:44:20;11.45;;;7.88;;
22268;SDS011;11303;50.772;19.670;2022-08-19T09:46:23;13.88;;;7.95;;
22268;SDS011;11303;50.772;19.670;2022-08-19T09:48:26;13.70;;;8.88;;
22268;SDS011;11303;50.772;19.670;2022-08-19T09:50:27;14.93;;;9.20;;
22268;SDS011;11303;50.772;19.670;2022-08-19T09:52:29;15.65;;;8.65;;
22268;SDS011;11303;50.772;19.670;2022-08-19T09:54:33;12.38;;;8.32;;
22268;SDS011;11303;50.772;19.670;2022-08-19T09:56:37;11.43;;;8.02;;
22268;SDS011;11303;50.772;19.670;2022-08-19T09:58:42;11.55;;;8.07;;
22268;SDS011;11303;50.772;19.670;2022-08-19T10:00:44;12.45;;;7.75;;
22268;SDS011;11303;50.772;19.670;2022-08-19T10:02:51;13.38;;;7.43;;
22268;SDS011;11303;50.772;19.670;2022-08-19T10:04:53;9.13;;;7.50;;
22268;SDS011;11303;50.772;19.670;2022-08-19T10:07:23;15.48;;;8.80;;
22268;SDS011;11303;50.772;19.670;2022-08-19T10:09:36;11.55;;;7.90;;
22268;SDS011;11303;50.772;19.670;2022-08-19T10:11:40;10.82;;;7.25;;
22268;SDS011;11303;50.772;19.670;2022-08-19T10:13:52;11.32;;;7.57;;
22268;SDS011;11303;50.772;19.670;2022-08-19T10:15:55;12.50;;;7.18;;
22268;SDS011;11303;50.772;19.670;2022-08-19T10:17:58;16.70;;;7.72;;
22268;SDS011;11303;50.772;19.670;2022-08-19T10:20:01;9.30;;;7.38;;
22268;SDS011;11303;50.772;19.670;2022-08-19T10:22:05;9.27;;;7.50;;
22268;SDS011;11303;50.772;19.670;2022-08-19T10:24:12;12.27;;;7.30;;
22268;SDS011;11303;50.772;19.670;2022-08-19T10:26:15;12.85;;;6.65;;
22268;SDS011;11303;50.772;19.670;2022-08-19T10:28:19;11.57;;;6.63;;
22268;SDS011;11303;50.772;19.670;2022-08-19T10:30:23;15.98;;;7.22;;
22268;SDS011;11303;50.772;19.670;2022-08-19T10:32:25;12.85;;;6.40;;
22268;SDS011;11303;50.772;19.670;2022-08-19T10:34:35;11.07;;;6.63;;
22268;SDS011;11303;50.772;19.670;2022-08-19T10:36:49;11.60;;;6.57;;
22268;SDS011;11303;50.772;19.670;2022-08-19T10:38:57;10.68;;;6.65;;
22268;SDS011;11303;50.772;19.670;2022-08-19T10:41:12;14.43;;;6.30;;
22268;SDS011;11303;50.772;19.670;2022-08-19T10:43:15;14.48;;;7.38;;
22268;SDS011;11303;50.772;19.670;2022-08-19T10:45:17;12.75;;;6.45;;
22268;SDS011;11303;50.772;19.670;2022-08-19T10:47:19;11.35;;;5.90;;
22268;SDS011;11303;50.772;19.670;2022-08-19T10:49:26;14.93;;;6.28;;
22268;SDS011;11303;50.772;19.670;2022-08-19T10:51:28;12.85;;;6.85;;
22268;SDS011;11303;50.772;19.670;2022-08-19T10:53:50;11.70;;;6.18;;
22268;SDS011;11303;50.772;19.670;2022-08-19T10:55:52;10.60;;;6.00;;
22268;SDS011;11303;50.772;19.670;2022-08-19T10:58:13;13.73;;;6.25;;
22268;SDS011;11303;50.772;19.670;2022-08-19T11:00:16;12.93;;;6.35;;
22268;SDS011;11303;50.772;19.670;2022-08-19T11:02:18;17.58;;;6.93;;
22268;SDS011;11303;50.772;19.670;2022-08-19T11:04:20;14.77;;;5.95;;
22268;SDS011;11303;50.772;19.670;2022-08-19T11:08:32;10.25;;;5.78;;
22268;SDS011;11303;50.772;19.670;2022-08-19T11:10:36;13.85;;;6.25;;
22268;SDS011;11303;50.772;19.670;2022-08-19T11:12:37;16.42;;;6.00;;
22268;SDS011;11303;50.772;19.670;2022-08-19T11:14:42;15.98;;;6.57;;
22268;SDS011;11303;50.772;19.670;2022-08-19T11:16:44;12.23;;;6.25;;
22268;SDS011;11303;50.772;19.670;2022-08-19T11:18:47;11.95;;;5.75;;
22268;SDS011;11303;50.772;19.670;2022-08-19T11:20:53;11.50;;;5.63;;
22268;SDS011;11303;50.772;19.670;2022-08-19T11:22:54;18.67;;;6.32;;
22268;SDS011;11303;50.772;19.670;2022-08-19T11:24:56;20.10;;;6.43;;
22268;SDS011;11303;50.772;19.670;2022-08-19T11:27:01;12.32;;;5.47;;
22268;SDS011;11303;50.772;19.670;2022-08-19T11:29:06;11.90;;;6.40;;
22268;SDS011;11303;50.772;19.670;2022-08-19T11:31:13;11.23;;;5.88;;
22268;SDS011;11303;50.772;19.670;2022-08-19T11:33:19;11.15;;;5.60;;
22268;SDS011;11303;50.772;19.670;2022-08-19T11:35:21;15.95;;;6.10;;
22268;SDS011;11303;50.772;19.670;2022-08-19T11:37:24;22.80;;;6.85;;
22268;SDS011;11303;50.772;19.670;2022-08-19T11:39:26;13.95;;;6.78;;
22268;SDS011;11303;50.772;19.670;2022-08-19T11:41:30;10.88;;;6.00;;
22268;SDS011;11303;50.772;19.670;2022-08-19T11:43:31;12.05;;;5.60;;
22268;SDS011;11303;50.772;19.670;2022-08-19T11:45:37;20.80;;;6.18;;
22268;SDS011;11303;50.772;19.670;2022-08-19T11:47:39;16.95;;;6.20;;
22268;SDS011;11303;50.772;19.670;2022-08-19T11:49:40;13.05;;;6.00;;
22268;SDS011;11303;50.772;19.670;2022-08-19T11:51:43;12.27;;;6.10;;
22268;SDS011;11303;50.772;19.670;2022-08-19T11:53:45;9.43;;;5.93;;
22268;SDS011;11303;50.772;19.670;2022-08-19T11:55:47;9.35;;;4.85;;
22268;SDS011;11303;50.772;19.670;2022-08-19T11:57:49;10.30;;;5.65;;
22268;SDS011;11303;50.772;19.670;2022-08-19T11:59:51;19.92;;;6.53;;
22268;SDS011;11303;50.772;19.670;2022-08-19T12:01:54;12.55;;;5.60;;
22268;SDS011;11303;50.772;19.670;2022-08-19T12:03:58;10.43;;;5.65;;
22268;SDS011;11303;50.772;19.670;2022-08-19T12:06:06;15.95;;;5.78;;
22268;SDS011;11303;50.772;19.670;2022-08-19T12:08:09;13.68;;;5.80;;
22268;SDS011;11303;50.772;19.670;2022-08-19T12:10:12;15.15;;;6.45;;